sensor_id;sensor_type;location;lat;lon;timestamp;temperature;humidity
32322;DHT22;61553;48.994;8.940;2023-02-28T02:21:35;-1.70;99.90
32322;DHT22;61553;48.994;8.940;2023-02-28T02:27:08;-1.80;99.90
32322;DHT22;61553;48.994;8.940;2023-02-28T02:34:58;-1.80;99.90
32322;DHT22;61553;48.994;8.940;2023-02-28T02:37:29;-1.80;99.90
32322;DHT22;61553;48.994;8.940;2023-02-28T02:40:03;-1.80;99.90
32322;DHT22;61553;48.994;8.940;2023-02-28T02:45:16;-1.80;99.90
32322;DHT22;61553;48.994;8.940;2023-02-28T02:47:44;-1.70;99.90
32322;DHT22;61553;48.994;8.940;2023-02-28T02:50:15;-1.70;99.90
32322;DHT22;61553;48.994;8.940;2023-02-28T02:52:46;-1.70;99.90
32322;DHT22;61553;48.994;8.940;2023-02-28T02:55:16;-1.70;99.90
32322;DHT22;61553;48.994;8.940;2023-02-28T02:57:48;-1.60;99.90
32322;DHT22;61553;48.994;8.940;2023-02-28T03:00:17;-1.60;99.90
32322;DHT22;61553;48.994;8.940;2023-02-28T03:02:44;-1.50;99.90
32322;DHT22;61553;48.994;8.940;2023-02-28T03:05:25;-1.50;99.90
32322;DHT22;61553;48.994;8.940;2023-02-28T03:07:51;-1.50;99.90
32322;DHT22;61553;48.994;8.940;2023-02-28T03:15:47;-1.40;99.90
32322;DHT22;61553;48.994;8.940;2023-02-28T03:21:54;-1.40;99.90
32322;DHT22;61553;48.994;8.940;2023-02-28T03:24:06;-1.40;99.90
32322;DHT22;61553;48.994;8.940;2023-02-28T03:26:38;-1.40;99.90
32322;DHT22;61553;48.994;8.940;2023-02-28T03:31:37;-1.30;99.90
32322;DHT22;61553;48.994;8.940;2023-02-28T03:36:53;-1.30;99.90
32322;DHT22;61553;48.994;8.940;2023-02-28T03:39:26;-1.30;99.90
32322;DHT22;61553;48.994;8.940;2023-02-28T03:41:59;-1.30;99.90
32322;DHT22;61553;48.994;8.940;2023-02-28T03:44:41;-1.30;99.90
32322;DHT22;61553;48.994;8.940;2023-02-28T03:47:17;-1.30;99.90
32322;DHT22;61553;48.994;8.940;2023-02-28T03:50:08;-1.30;99.90
32322;DHT22;61553;48.994;8.940;2023-02-28T03:52:43;-1.30;99.90
32322;DHT22;61553;48.994;8.940;2023-02-28T03:55:12;-1.30;99.90
32322;DHT22;61553;48.994;8.940;2023-02-28T03:58:04;-1.30;99.90
32322;DHT22;61553;48.994;8.940;2023-02-28T04:00:39;-1.30;99.90
32322;DHT22;61553;48.994;8.940;2023-02-28T04:03:05;-1.30;99.90
32322;DHT22;61553;48.994;8.940;2023-02-28T04:05:32;-1.30;99.90
32322;DHT22;61553;48.994;8.940;2023-02-28T04:08:08;-1.30;99.90
32322;DHT22;61553;48.994;8.940;2023-02-28T04:10:34;-1.40;99.90
32322;DHT22;61553;48.994;8.940;2023-02-28T04:12:59;-1.30;99.90
32322;DHT22;61553;48.994;8.940;2023-02-28T04:15:25;-1.40;99.90
32322;DHT22;61553;48.994;8.940;2023-02-28T04:17:53;-1.40;99.90
32322;DHT22;61553;48.994;8.940;2023-02-28T04:20:18;-1.40;99.90
32322;DHT22;61553;48.994;8.940;2023-02-28T04:22:44;-1.40;99.90
32322;DHT22;61553;48.994;8.940;2023-02-28T04:25:10;-1.40;99.90
32322;DHT22;61553;48.994;8.940;2023-02-28T04:27:35;-1.40;99.90
32322;DHT22;61553;48.994;8.940;2023-02-28T04:30:01;-1.40;99.90
32322;DHT22;61553;48.994;8.940;2023-02-28T04:32:26;-1.40;99.90
32322;DHT22;61553;48.994;8.940;2023-02-28T04:34:52;-1.40;99.90
32322;DHT22;61553;48.994;8.940;2023-02-28T04:37:18;-1.40;99.90
32322;DHT22;61553;48.994;8.940;2023-02-28T04:39:44;-1.40;99.90
32322;DHT22;61553;48.994;8.940;2023-02-28T04:42:09;-1.40;99.90
32322;DHT22;61553;48.994;8.940;2023-02-28T04:44:35;-1.40;99.90
32322;DHT22;61553;48.994;8.940;2023-02-28T04:47:01;-1.40;99.90
32322;DHT22;61553;48.994;8.940;2023-02-28T04:49:26;-1.40;99.90
32322;DHT22;61553;48.994;8.940;2023-02-28T04:51:52;-1.40;99.90
32322;DHT22;61553;48.994;8.940;2023-02-28T04:54:18;-1.30;99.90
32322;DHT22;61553;48.994;8.940;2023-02-28T04:56:44;-1.30;99.90
32322;DHT22;61553;48.994;8.940;2023-02-28T04:59:09;-1.30;99.90
32322;DHT22;61553;48.994;8.940;2023-02-28T05:01:35;-1.30;99.90
32322;DHT22;61553;48.994;8.940;2023-02-28T05:04:03;-1.20;99.90
32322;DHT22;61553;48.994;8.940;2023-02-28T05:06:31;-1.30;99.90
32322;DHT22;61553;48.994;8.940;2023-02-28T05:08:58;-1.30;99.90
32322;DHT22;61553;48.994;8.940;2023-02-28T05:11:27;-1.30;99.90
32322;DHT22;61553;48.994;8.940;2023-02-28T05:13:54;-1.10;99.90
32322;DHT22;61553;48.994;8.940;2023-02-28T05:16:21;-1.30;99.90
32322;DHT22;61553;48.994;8.940;2023-02-28T05:18:47;-1.30;99.90
32322;DHT22;61553;48.994;8.940;2023-02-28T05:21:30;-1.30;99.90
32322;DHT22;61553;48.994;8.940;2023-02-28T05:23:59;-1.30;99.90
32322;DHT22;61553;48.994;8.940;2023-02-28T05:26:26;-1.20;99.90
32322;DHT22;61553;48.994;8.940;2023-02-28T05:28:52;-1.20;99.90
32322;DHT22;61553;48.994;8.940;2023-02-28T05:31:17;-1.20;99.90
32322;DHT22;61553;48.994;8.940;2023-02-28T05:33:43;-1.20;99.90
32322;DHT22;61553;48.994;8.940;2023-02-28T05:36:09;-1.20;99.90
32322;DHT22;61553;48.994;8.940;2023-02-28T05:38:35;-1.20;99.90
32322;DHT22;61553;48.994;8.940;2023-02-28T05:41:05;-1.20;99.90
32322;DHT22;61553;48.994;8.940;2023-02-28T05:43:31;-1.10;99.90
32322;DHT22;61553;48.994;8.940;2023-02-28T05:45:56;-1.20;99.90
32322;DHT22;61553;48.994;8.940;2023-02-28T05:48:22;-1.10;99.90
32322;DHT22;61553;48.994;8.940;2023-02-28T05:50:47;-1.10;99.90
32322;DHT22;61553;48.994;8.940;2023-02-28T05:53:13;-1.10;99.90
32322;DHT22;61553;48.994;8.940;2023-02-28T05:55:38;-1.10;99.90
32322;DHT22;61553;48.994;8.940;2023-02-28T05:58:06;-1.20;99.90
32322;DHT22;61553;48.994;8.940;2023-02-28T06:00:32;-1.10;99.90
32322;DHT22;61553;48.994;8.940;2023-02-28T06:02:57;-1.10;99.90
32322;DHT22;61553;48.994;8.940;2023-02-28T06:05:26;-1.10;99.90
32322;DHT22;61553;48.994;8.940;2023-02-28T06:07:53;-1.10;99.90
32322;DHT22;61553;48.994;8.940;2023-02-28T06:10:18;-1.10;99.90
32322;DHT22;61553;48.994;8.940;2023-02-28T06:12:45;-1.00;99.90
32322;DHT22;61553;48.994;8.940;2023-02-28T06:15:15;-1.00;99.90
32322;DHT22;61553;48.994;8.940;2023-02-28T06:17:44;-1.10;99.90
32322;DHT22;61553;48.994;8.940;2023-02-28T06:20:11;-1.00;99.90
32322;DHT22;61553;48.994;8.940;2023-02-28T06:22:38;-1.00;99.90
32322;DHT22;61553;48.994;8.940;2023-02-28T06:25:05;-0.50;99.90
32322;DHT22;61553;48.994;8.940;2023-02-28T06:27:32;-1.00;99.90
32322;DHT22;61553;48.994;8.940;2023-02-28T06:29:57;-1.00;99.90
32322;DHT22;61553;48.994;8.940;2023-02-28T06:32:23;-1.00;99.90
32322;DHT22;61553;48.994;8.940;2023-02-28T06:34:49;-1.00;99.90
32322;DHT22;61553;48.994;8.940;2023-02-28T06:37:16;-0.90;99.90
32322;DHT22;61553;48.994;8.940;2023-02-28T06:39:42;-1.00;99.90
32322;DHT22;61553;48.994;8.940;2023-02-28T06:42:07;-0.90;99.90
32322;DHT22;61553;48.994;8.940;2023-02-28T06:44:33;-0.90;99.90
32322;DHT22;61553;48.994;8.940;2023-02-28T06:47:01;-0.90;99.90
32322;DHT22;61553;48.994;8.940;2023-02-28T06:49:32;-0.90;99.90
32322;DHT22;61553;48.994;8.940;2023-02-28T06:51:57;-0.90;99.90
32322;DHT22;61553;48.994;8.940;2023-02-28T06:54:23;-0.90;99.90
32322;DHT22;61553;48.994;8.940;2023-02-28T06:56:49;-0.80;99.90
32322;DHT22;61553;48.994;8.940;2023-02-28T06:59:14;-0.90;99.90
32322;DHT22;61553;48.994;8.940;2023-02-28T07:01:40;-0.80;99.90
32322;DHT22;61553;48.994;8.940;2023-02-28T07:04:06;-0.90;99.90
32322;DHT22;61553;48.994;8.940;2023-02-28T07:06:32;-0.80;99.90
32322;DHT22;61553;48.994;8.940;2023-02-28T07:08:58;-0.20;99.90
32322;DHT22;61553;48.994;8.940;2023-02-28T07:11:25;-0.80;99.90
32322;DHT22;61553;48.994;8.940;2023-02-28T07:13:52;-0.80;99.90
32322;DHT22;61553;48.994;8.940;2023-02-28T07:16:18;-0.70;99.90
32322;DHT22;61553;48.994;8.940;2023-02-28T07:18:44;-0.80;99.90
32322;DHT22;61553;48.994;8.940;2023-02-28T07:21:10;-0.70;99.90
32322;DHT22;61553;48.994;8.940;2023-02-28T07:23:36;-0.70;99.90
32322;DHT22;61553;48.994;8.940;2023-02-28T07:26:06;-0.70;99.90
32322;DHT22;61553;48.994;8.940;2023-02-28T07:28:32;-0.60;99.90
32322;DHT22;61553;48.994;8.940;2023-02-28T07:31:04;-0.60;99.90
32322;DHT22;61553;48.994;8.940;2023-02-28T07:33:30;-0.50;99.90
32322;DHT22;61553;48.994;8.940;2023-02-28T07:36:07;-0.50;99.90
32322;DHT22;61553;48.994;8.940;2023-02-28T07:38:37;-0.40;99.90
32322;DHT22;61553;48.994;8.940;2023-02-28T07:41:03;-0.30;99.90
32322;DHT22;61553;48.994;8.940;2023-02-28T07:43:32;-0.20;99.90
32322;DHT22;61553;48.994;8.940;2023-02-28T07:46:06;-0.10;99.90
32322;DHT22;61553;48.994;8.940;2023-02-28T07:48:32;0.00;99.90
32322;DHT22;61553;48.994;8.940;2023-02-28T07:50:58;0.00;99.90
32322;DHT22;61553;48.994;8.940;2023-02-28T07:53:25;0.00;99.90
32322;DHT22;61553;48.994;8.940;2023-02-28T07:55:50;0.10;99.90
32322;DHT22;61553;48.994;8.940;2023-02-28T07:58:16;0.10;99.90
32322;DHT22;61553;48.994;8.940;2023-02-28T08:00:41;0.30;99.90
32322;DHT22;61553;48.994;8.940;2023-02-28T08:03:11;0.30;99.90
32322;DHT22;61553;48.994;8.940;2023-02-28T08:05:40;0.50;99.90
32322;DHT22;61553;48.994;8.940;2023-02-28T08:08:09;0.60;99.90
32322;DHT22;61553;48.994;8.940;2023-02-28T08:10:35;0.50;99.90
32322;DHT22;61553;48.994;8.940;2023-02-28T08:13:00;0.50;99.90
32322;DHT22;61553;48.994;8.940;2023-02-28T08:15:26;1.50;99.90
32322;DHT22;61553;48.994;8.940;2023-02-28T08:17:52;0.70;99.90
32322;DHT22;61553;48.994;8.940;2023-02-28T08:20:18;0.70;99.90
32322;DHT22;61553;48.994;8.940;2023-02-28T08:22:43;0.80;99.90
32322;DHT22;61553;48.994;8.940;2023-02-28T08:25:09;1.00;99.90
32322;DHT22;61553;48.994;8.940;2023-02-28T08:27:36;1.00;99.90
32322;DHT22;61553;48.994;8.940;2023-02-28T08:30:02;1.10;99.90
32322;DHT22;61553;48.994;8.940;2023-02-28T08:32:28;1.10;99.90
32322;DHT22;61553;48.994;8.940;2023-02-28T08:34:54;1.10;99.90
32322;DHT22;61553;48.994;8.940;2023-02-28T08:37:19;1.30;99.90
32322;DHT22;61553;48.994;8.940;2023-02-28T08:39:45;1.50;99.90
32322;DHT22;61553;48.994;8.940;2023-02-28T08:42:11;1.50;99.90
32322;DHT22;61553;48.994;8.940;2023-02-28T08:44:36;1.70;99.90
32322;DHT22;61553;48.994;8.940;2023-02-28T08:47:02;1.70;99.90
32322;DHT22;61553;48.994;8.940;2023-02-28T08:49:28;1.70;99.90
32322;DHT22;61553;48.994;8.940;2023-02-28T08:51:54;1.80;99.90
32322;DHT22;61553;48.994;8.940;2023-02-28T08:54:20;1.90;99.90
32322;DHT22;61553;48.994;8.940;2023-02-28T08:56:46;2.00;99.90
32322;DHT22;61553;48.994;8.940;2023-02-28T08:59:12;2.00;99.90
32322;DHT22;61553;48.994;8.940;2023-02-28T09:01:38;2.20;99.90
32322;DHT22;61553;48.994;8.940;2023-02-28T09:04:04;2.30;99.90
32322;DHT22;61553;48.994;8.940;2023-02-28T09:06:32;2.20;99.90
32322;DHT22;61553;48.994;8.940;2023-02-28T09:08:58;2.20;99.90
32322;DHT22;61553;48.994;8.940;2023-02-28T09:11:28;2.40;99.90
32322;DHT22;61553;48.994;8.940;2023-02-28T09:13:54;2.60;99.90
32322;DHT22;61553;48.994;8.940;2023-02-28T09:16:21;2.70;99.50
32322;DHT22;61553;48.994;8.940;2023-02-28T09:18:47;2.90;99.10
32322;DHT22;61553;48.994;8.940;2023-02-28T09:21:15;2.90;98.40
32322;DHT22;61553;48.994;8.940;2023-02-28T09:23:43;2.80;98.50
32322;DHT22;61553;48.994;8.940;2023-02-28T09:26:14;2.90;98.50
32322;DHT22;61553;48.994;8.940;2023-02-28T09:28:40;3.20;97.40
32322;DHT22;61553;48.994;8.940;2023-02-28T09:31:06;3.40;97.10
32322;DHT22;61553;48.994;8.940;2023-02-28T09:33:31;3.40;96.70
32322;DHT22;61553;48.994;8.940;2023-02-28T09:35:59;3.30;96.40
32322;DHT22;61553;48.994;8.940;2023-02-28T09:38:25;3.40;96.20
32322;DHT22;61553;48.994;8.940;2023-02-28T09:40:57;3.30;96.00
32322;DHT22;61553;48.994;8.940;2023-02-28T09:43:26;3.50;95.80
32322;DHT22;61553;48.994;8.940;2023-02-28T09:46:00;3.50;95.40
32322;DHT22;61553;48.994;8.940;2023-02-28T09:48:39;3.50;95.60
32322;DHT22;61553;48.994;8.940;2023-02-28T09:53:57;3.60;95.70
32322;DHT22;61553;48.994;8.940;2023-02-28T09:59:10;3.70;94.50
32322;DHT22;61553;48.994;8.940;2023-02-28T10:02:17;3.90;94.00
32322;DHT22;61553;48.994;8.940;2023-02-28T10:04:47;4.00;93.30
32322;DHT22;61553;48.994;8.940;2023-02-28T10:13:00;3.70;92.50
32322;DHT22;61553;48.994;8.940;2023-02-28T10:15:30;3.80;92.40
32322;DHT22;61553;48.994;8.940;2023-02-28T10:18:00;3.70;92.30
32322;DHT22;61553;48.994;8.940;2023-02-28T10:20:27;3.80;92.40
32322;DHT22;61553;48.994;8.940;2023-02-28T10:25:27;4.10;91.40
32322;DHT22;61553;48.994;8.940;2023-02-28T10:28:28;4.10;90.90
32322;DHT22;61553;48.994;8.940;2023-02-28T10:30:51;4.10;90.80
32322;DHT22;61553;48.994;8.940;2023-02-28T10:33:18;4.20;90.40
32322;DHT22;61553;48.994;8.940;2023-02-28T10:35:45;4.30;90.20
32322;DHT22;61553;48.994;8.940;2023-02-28T10:38:16;4.20;90.00
32322;DHT22;61553;48.994;8.940;2023-02-28T10:40:42;4.30;90.10
32322;DHT22;61553;48.994;8.940;2023-02-28T10:43:20;4.30;89.60
32322;DHT22;61553;48.994;8.940;2023-02-28T10:46:13;4.40;89.60
32322;DHT22;61553;48.994;8.940;2023-02-28T10:48:47;4.50;89.20
32322;DHT22;61553;48.994;8.940;2023-02-28T10:51:16;4.50;89.20
32322;DHT22;61553;48.994;8.940;2023-02-28T10:58:59;4.80;87.00
32322;DHT22;61553;48.994;8.940;2023-02-28T11:03:57;6.90;82.50
32322;DHT22;61553;48.994;8.940;2023-02-28T11:06:26;7.80;76.60
32322;DHT22;61553;48.994;8.940;2023-02-28T11:08:56;7.80;73.20
32322;DHT22;61553;48.994;8.940;2023-02-28T11:11:24;7.80;73.00
32322;DHT22;61553;48.994;8.940;2023-02-28T11:13:53;8.50;70.50
32322;DHT22;61553;48.994;8.940;2023-02-28T11:16:20;9.10;68.20
32322;DHT22;61553;48.994;8.940;2023-02-28T11:18:52;9.10;66.70
32322;DHT22;61553;48.994;8.940;2023-02-28T11:21:39;8.90;65.30
32322;DHT22;61553;48.994;8.940;2023-02-28T11:24:33;8.70;66.30
32322;DHT22;61553;48.994;8.940;2023-02-28T11:27:00;9.00;65.20
32322;DHT22;61553;48.994;8.940;2023-02-28T11:29:28;8.40;66.20
32322;DHT22;61553;48.994;8.940;2023-02-28T11:32:02;7.90;66.90
32322;DHT22;61553;48.994;8.940;2023-02-28T11:34:29;8.00;67.60
32322;DHT22;61553;48.994;8.940;2023-02-28T11:36:57;7.90;67.90
32322;DHT22;61553;48.994;8.940;2023-02-28T11:39:25;8.00;67.60
32322;DHT22;61553;48.994;8.940;2023-02-28T11:47:36;8.30;66.10
32322;DHT22;61553;48.994;8.940;2023-02-28T11:52:52;8.30;65.90
32322;DHT22;61553;48.994;8.940;2023-02-28T11:55:35;8.60;65.50
32322;DHT22;61553;48.994;8.940;2023-02-28T12:03:53;8.40;66.20
32322;DHT22;61553;48.994;8.940;2023-02-28T12:22:32;7.90;63.10
32322;DHT22;61553;48.994;8.940;2023-02-28T12:27:36;7.50;65.30
32322;DHT22;61553;48.994;8.940;2023-02-28T12:32:44;7.20;66.30
32322;DHT22;61553;48.994;8.940;2023-02-28T12:35:18;7.10;65.50
32322;DHT22;61553;48.994;8.940;2023-02-28T12:41:19;6.90;67.00
32322;DHT22;61553;48.994;8.940;2023-02-28T12:46:55;7.00;67.10
32322;DHT22;61553;48.994;8.940;2023-02-28T12:49:38;6.80;66.80
32322;DHT22;61553;48.994;8.940;2023-02-28T12:52:05;6.70;67.70
32322;DHT22;61553;48.994;8.940;2023-02-28T12:59:49;7.20;66.90
32322;DHT22;61553;48.994;8.940;2023-02-28T13:07:54;6.80;67.00
32322;DHT22;61553;48.994;8.940;2023-02-28T13:10:21;6.80;68.50
32322;DHT22;61553;48.994;8.940;2023-02-28T13:12:52;7.00;67.90
32322;DHT22;61553;48.994;8.940;2023-02-28T13:15:26;6.90;67.30
32322;DHT22;61553;48.994;8.940;2023-02-28T13:17:56;6.80;67.60
32322;DHT22;61553;48.994;8.940;2023-02-28T13:20:25;6.70;68.20
32322;DHT22;61553;48.994;8.940;2023-02-28T13:22:53;6.60;68.50
32322;DHT22;61553;48.994;8.940;2023-02-28T13:27:52;6.70;68.00
32322;DHT22;61553;48.994;8.940;2023-02-28T13:44:11;7.10;67.50
32322;DHT22;61553;48.994;8.940;2023-02-28T14:05:18;6.80;68.80
32322;DHT22;61553;48.994;8.940;2023-02-28T14:07:57;7.00;68.50
32322;DHT22;61553;48.994;8.940;2023-02-28T14:10:29;6.80;67.70
32322;DHT22;61553;48.994;8.940;2023-02-28T14:16:08;6.90;68.50
32322;DHT22;61553;48.994;8.940;2023-02-28T14:18:40;6.90;68.80
32322;DHT22;61553;48.994;8.940;2023-02-28T14:23:39;6.80;69.40
32322;DHT22;61553;48.994;8.940;2023-02-28T14:32:01;6.80;69.10
32322;DHT22;61553;48.994;8.940;2023-02-28T14:34:50;6.60;69.00
32322;DHT22;61553;48.994;8.940;2023-02-28T14:37:28;6.30;69.50
32322;DHT22;61553;48.994;8.940;2023-02-28T14:39:55;6.30;70.10
32322;DHT22;61553;48.994;8.940;2023-02-28T14:44:56;5.90;70.40
32322;DHT22;61553;48.994;8.940;2023-02-28T14:47:24;5.80;71.60
32322;DHT22;61553;48.994;8.940;2023-02-28T14:49:51;5.90;72.00
32322;DHT22;61553;48.994;8.940;2023-02-28T14:52:21;5.90;72.00
32322;DHT22;61553;48.994;8.940;2023-02-28T14:54:56;5.90;72.00
32322;DHT22;61553;48.994;8.940;2023-02-28T14:57:32;6.00;71.90
32322;DHT22;61553;48.994;8.940;2023-02-28T15:02:25;6.00;71.50
32322;DHT22;61553;48.994;8.940;2023-02-28T15:04:56;6.00;71.30
32322;DHT22;61553;48.994;8.940;2023-02-28T15:07:22;6.00;72.00
32322;DHT22;61553;48.994;8.940;2023-02-28T15:10:20;5.90;71.80
32322;DHT22;61553;48.994;8.940;2023-02-28T15:12:51;5.70;72.50
32322;DHT22;61553;48.994;8.940;2023-02-28T15:15:18;5.70;72.90
32322;DHT22;61553;48.994;8.940;2023-02-28T15:17:49;5.80;72.80
32322;DHT22;61553;48.994;8.940;2023-02-28T15:20:16;5.80;73.10
32322;DHT22;61553;48.994;8.940;2023-02-28T15:22:42;5.70;72.90
32322;DHT22;61553;48.994;8.940;2023-02-28T15:25:13;5.70;73.50
32322;DHT22;61553;48.994;8.940;2023-02-28T15:27:45;5.70;73.80
32322;DHT22;61553;48.994;8.940;2023-02-28T15:30:20;5.80;73.70
32322;DHT22;61553;48.994;8.940;2023-02-28T15:33:23;5.70;73.00
32322;DHT22;61553;48.994;8.940;2023-02-28T15:35:48;5.60;72.90
32322;DHT22;61553;48.994;8.940;2023-02-28T15:38:24;5.50;73.40
32322;DHT22;61553;48.994;8.940;2023-02-28T15:40:55;5.40;73.40
32322;DHT22;61553;48.994;8.940;2023-02-28T15:43:37;5.30;73.70
32322;DHT22;61553;48.994;8.940;2023-02-28T15:46:13;5.20;74.10
32322;DHT22;61553;48.994;8.940;2023-02-28T15:48:52;5.10;73.90
32322;DHT22;61553;48.994;8.940;2023-02-28T15:51:22;5.10;74.30
32322;DHT22;61553;48.994;8.940;2023-02-28T15:53:56;5.10;74.60
32322;DHT22;61553;48.994;8.940;2023-02-28T15:56:26;5.00;75.20
32322;DHT22;61553;48.994;8.940;2023-02-28T15:58:56;5.00;75.80
32322;DHT22;61553;48.994;8.940;2023-02-28T16:01:28;4.90;75.40
32322;DHT22;61553;48.994;8.940;2023-02-28T16:03:59;4.90;76.00
32322;DHT22;61553;48.994;8.940;2023-02-28T16:06:44;4.80;76.00
32322;DHT22;61553;48.994;8.940;2023-02-28T16:09:15;5.00;76.50
32322;DHT22;61553;48.994;8.940;2023-02-28T16:11:45;4.70;76.00
32322;DHT22;61553;48.994;8.940;2023-02-28T16:14:30;4.60;77.30
32322;DHT22;61553;48.994;8.940;2023-02-28T16:17:01;4.60;77.00
32322;DHT22;61553;48.994;8.940;2023-02-28T16:19:27;4.60;76.90
32322;DHT22;61553;48.994;8.940;2023-02-28T16:21:53;4.40;77.20
32322;DHT22;61553;48.994;8.940;2023-02-28T16:24:18;4.50;77.90
32322;DHT22;61553;48.994;8.940;2023-02-28T16:26:46;4.30;77.70
32322;DHT22;61553;48.994;8.940;2023-02-28T16:29:26;4.30;78.30
32322;DHT22;61553;48.994;8.940;2023-02-28T16:31:54;4.10;78.70
32322;DHT22;61553;48.994;8.940;2023-02-28T16:34:20;4.10;79.10
32322;DHT22;61553;48.994;8.940;2023-02-28T16:36:49;4.00;79.00
32322;DHT22;61553;48.994;8.940;2023-02-28T16:39:15;4.00;79.50
32322;DHT22;61553;48.994;8.940;2023-02-28T16:41:44;3.90;79.70
32322;DHT22;61553;48.994;8.940;2023-02-28T16:44:15;3.80;79.80
32322;DHT22;61553;48.994;8.940;2023-02-28T16:46:46;3.70;80.20
32322;DHT22;61553;48.994;8.940;2023-02-28T16:49:12;3.70;80.50
32322;DHT22;61553;48.994;8.940;2023-02-28T16:51:38;3.70;81.00
32322;DHT22;61553;48.994;8.940;2023-02-28T16:54:04;3.50;81.10
32322;DHT22;61553;48.994;8.940;2023-02-28T16:56:29;3.40;81.40
32322;DHT22;61553;48.994;8.940;2023-02-28T16:58:59;3.40;81.80
32322;DHT22;61553;48.994;8.940;2023-02-28T17:01:25;3.30;82.00
32322;DHT22;61553;48.994;8.940;2023-02-28T17:03:52;3.30;82.30
32322;DHT22;61553;48.994;8.940;2023-02-28T17:06:26;3.10;82.80
32322;DHT22;61553;48.994;8.940;2023-02-28T17:08:55;3.10;83.10
32322;DHT22;61553;48.994;8.940;2023-02-28T17:11:21;3.40;83.80
32322;DHT22;61553;48.994;8.940;2023-02-28T17:13:48;2.90;83.90
32322;DHT22;61553;48.994;8.940;2023-02-28T17:16:29;2.80;84.10
32322;DHT22;61553;48.994;8.940;2023-02-28T17:19:01;2.80;84.50
32322;DHT22;61553;48.994;8.940;2023-02-28T17:21:28;2.70;85.10
32322;DHT22;61553;48.994;8.940;2023-02-28T17:23:54;2.60;85.40
32322;DHT22;61553;48.994;8.940;2023-02-28T17:26:21;2.60;85.90
32322;DHT22;61553;48.994;8.940;2023-02-28T17:28:48;2.50;86.40
32322;DHT22;61553;48.994;8.940;2023-02-28T17:31:13;2.50;86.90
32322;DHT22;61553;48.994;8.940;2023-02-28T17:33:39;2.50;87.60
32322;DHT22;61553;48.994;8.940;2023-02-28T17:36:05;2.40;88.30
32322;DHT22;61553;48.994;8.940;2023-02-28T17:38:32;2.50;88.70
32322;DHT22;61553;48.994;8.940;2023-02-28T17:40:57;2.50;89.00
32322;DHT22;61553;48.994;8.940;2023-02-28T17:43:26;2.40;89.50
32322;DHT22;61553;48.994;8.940;2023-02-28T17:45:53;2.40;90.00
32322;DHT22;61553;48.994;8.940;2023-02-28T17:48:19;2.50;90.30
32322;DHT22;61553;48.994;8.940;2023-02-28T17:50:45;2.30;90.40
32322;DHT22;61553;48.994;8.940;2023-02-28T17:53:11;2.20;90.60
32322;DHT22;61553;48.994;8.940;2023-02-28T17:55:36;2.30;90.90
32322;DHT22;61553;48.994;8.940;2023-02-28T17:58:03;2.20;91.10
32322;DHT22;61553;48.994;8.940;2023-02-28T18:00:29;2.30;91.30
32322;DHT22;61553;48.994;8.940;2023-02-28T18:02:54;2.20;91.30
32322;DHT22;61553;48.994;8.940;2023-02-28T18:05:20;2.10;91.60
32322;DHT22;61553;48.994;8.940;2023-02-28T18:07:46;2.20;91.70
32322;DHT22;61553;48.994;8.940;2023-02-28T18:10:20;2.20;92.10
32322;DHT22;61553;48.994;8.940;2023-02-28T18:12:51;2.10;92.00
32322;DHT22;61553;48.994;8.940;2023-02-28T18:15:20;2.10;92.10
32322;DHT22;61553;48.994;8.940;2023-02-28T18:17:47;2.10;92.30
32322;DHT22;61553;48.994;8.940;2023-02-28T18:20:12;2.20;92.40
32322;DHT22;61553;48.994;8.940;2023-02-28T18:22:39;2.10;92.50
32322;DHT22;61553;48.994;8.940;2023-02-28T18:25:07;2.10;92.60
32322;DHT22;61553;48.994;8.940;2023-02-28T18:27:34;2.00;92.90
32322;DHT22;61553;48.994;8.940;2023-02-28T18:30:01;2.10;92.90
32322;DHT22;61553;48.994;8.940;2023-02-28T18:32:28;2.00;93.00
32322;DHT22;61553;48.994;8.940;2023-02-28T18:34:53;2.10;93.10
32322;DHT22;61553;48.994;8.940;2023-02-28T18:37:19;2.00;93.20
32322;DHT22;61553;48.994;8.940;2023-02-28T18:39:45;2.00;93.30
32322;DHT22;61553;48.994;8.940;2023-02-28T18:42:11;1.90;93.30
32322;DHT22;61553;48.994;8.940;2023-02-28T18:44:37;1.90;93.30
32322;DHT22;61553;48.994;8.940;2023-02-28T18:47:02;1.90;93.40
32322;DHT22;61553;48.994;8.940;2023-02-28T18:49:30;2.10;93.50
32322;DHT22;61553;48.994;8.940;2023-02-28T18:51:58;1.90;93.60
32322;DHT22;61553;48.994;8.940;2023-02-28T18:54:24;1.80;93.70
32322;DHT22;61553;48.994;8.940;2023-02-28T18:56:50;1.90;93.70
32322;DHT22;61553;48.994;8.940;2023-02-28T18:59:16;1.80;94.10
32322;DHT22;61553;48.994;8.940;2023-02-28T19:01:41;1.70;94.10
32322;DHT22;61553;48.994;8.940;2023-02-28T19:04:11;1.70;94.40
32322;DHT22;61553;48.994;8.940;2023-02-28T19:06:37;1.70;94.20
32322;DHT22;61553;48.994;8.940;2023-02-28T19:09:04;1.70;94.20
32322;DHT22;61553;48.994;8.940;2023-02-28T19:11:30;1.70;94.20
32322;DHT22;61553;48.994;8.940;2023-02-28T19:13:55;1.70;94.40
32322;DHT22;61553;48.994;8.940;2023-02-28T19:16:22;1.60;94.50
32322;DHT22;61553;48.994;8.940;2023-02-28T19:18:48;1.70;94.60
32322;DHT22;61553;48.994;8.940;2023-02-28T19:21:15;1.70;94.50
32322;DHT22;61553;48.994;8.940;2023-02-28T19:23:41;1.70;94.50
32322;DHT22;61553;48.994;8.940;2023-02-28T19:26:09;1.70;94.60
32322;DHT22;61553;48.994;8.940;2023-02-28T19:28:35;1.70;94.50
32322;DHT22;61553;48.994;8.940;2023-02-28T19:31:01;1.70;94.50
32322;DHT22;61553;48.994;8.940;2023-02-28T19:33:27;1.70;94.60
32322;DHT22;61553;48.994;8.940;2023-02-28T19:35:53;1.70;94.60
32322;DHT22;61553;48.994;8.940;2023-02-28T19:38:18;1.60;94.70
32322;DHT22;61553;48.994;8.940;2023-02-28T19:40:44;1.60;94.90
32322;DHT22;61553;48.994;8.940;2023-02-28T19:43:10;1.60;94.80
32322;DHT22;61553;48.994;8.940;2023-02-28T19:45:36;1.50;95.00
32322;DHT22;61553;48.994;8.940;2023-02-28T19:48:03;1.50;95.00
32322;DHT22;61553;48.994;8.940;2023-02-28T19:50:29;1.50;95.00
32322;DHT22;61553;48.994;8.940;2023-02-28T19:52:55;1.50;95.10
32322;DHT22;61553;48.994;8.940;2023-02-28T19:55:20;1.50;95.20
32322;DHT22;61553;48.994;8.940;2023-02-28T19:57:46;1.50;95.30
32322;DHT22;61553;48.994;8.940;2023-02-28T20:00:13;1.50;95.60
32322;DHT22;61553;48.994;8.940;2023-02-28T20:02:40;1.40;95.70
32322;DHT22;61553;48.994;8.940;2023-02-28T20:05:06;1.30;95.80
32322;DHT22;61553;48.994;8.940;2023-02-28T20:07:32;1.30;96.10
32322;DHT22;61553;48.994;8.940;2023-02-28T20:09:58;1.30;95.90
32322;DHT22;61553;48.994;8.940;2023-02-28T20:12:23;1.30;96.00
32322;DHT22;61553;48.994;8.940;2023-02-28T20:14:50;1.40;96.10
32322;DHT22;61553;48.994;8.940;2023-02-28T20:17:16;1.30;96.20
32322;DHT22;61553;48.994;8.940;2023-02-28T20:19:42;1.30;96.20
32322;DHT22;61553;48.994;8.940;2023-02-28T20:22:08;1.30;96.30
32322;DHT22;61553;48.994;8.940;2023-02-28T20:24:37;1.30;96.50
32322;DHT22;61553;48.994;8.940;2023-02-28T20:27:03;1.20;96.60
32322;DHT22;61553;48.994;8.940;2023-02-28T20:29:29;1.30;96.60
32322;DHT22;61553;48.994;8.940;2023-02-28T20:31:55;1.60;97.10
32322;DHT22;61553;48.994;8.940;2023-02-28T20:34:22;1.30;96.70
32322;DHT22;61553;48.994;8.940;2023-02-28T20:36:49;1.30;96.90
32322;DHT22;61553;48.994;8.940;2023-02-28T20:39:15;1.20;96.90
32322;DHT22;61553;48.994;8.940;2023-02-28T20:41:40;1.30;97.00
32322;DHT22;61553;48.994;8.940;2023-02-28T20:44:08;1.30;97.20